createdAt,value
2022-10-15T00:01:33.814Z,93.20
2022-10-15T00:07:01.677Z,93.30
2022-10-15T00:12:29.546Z,93.50
2022-10-15T00:17:58.226Z,93.50
2022-10-15T00:23:26.134Z,93.60
2022-10-15T00:28:58.540Z,93.60
2022-10-15T00:34:26.338Z,93.70
2022-10-15T00:39:54.139Z,93.80
2022-10-15T00:45:22.322Z,93.90
2022-10-15T00:50:50.170Z,94.00
2022-10-15T00:56:22.658Z,94.10
2022-10-15T01:01:50.775Z,94.20
2022-10-15T01:07:18.762Z,94.30
2022-10-15T01:13:15.436Z,94.30
2022-10-15T01:18:57.527Z,94.40
2022-10-15T01:24:53.205Z,94.50
2022-10-15T01:30:45.522Z,94.50
2022-10-15T01:36:34.695Z,94.60
2022-10-15T01:42:29.581Z,94.60
2022-10-15T01:48:04.898Z,94.70
2022-10-15T01:53:35.387Z,94.80
2022-10-15T01:59:05.906Z,94.90
2022-10-15T02:04:33.936Z,95.00
2022-10-15T02:10:23.350Z,95.00
2022-10-15T02:16:25.847Z,95.10
2022-10-15T02:22:09.353Z,95.20
2022-10-15T02:27:39.391Z,95.30
2022-10-15T02:33:08.453Z,95.30
2022-10-15T02:38:38.491Z,95.40
2022-10-15T02:44:06.835Z,95.50
2022-10-15T02:49:34.616Z,95.60
2022-10-15T02:55:04.187Z,95.70
2022-10-15T03:00:32.205Z,95.80
2022-10-15T03:06:00.345Z,95.90
2022-10-15T03:11:28.886Z,95.90
2022-10-15T03:16:56.683Z,96.10
2022-10-15T03:22:24.756Z,96.30
2022-10-15T03:27:54.549Z,96.40
2022-10-15T03:33:28.758Z,96.60
2022-10-15T03:38:57.075Z,96.80
2022-10-15T03:44:25.152Z,97.00
2022-10-15T03:50:04.915Z,97.30
2022-10-15T03:55:33.495Z,97.40
2022-10-15T04:01:01.843Z,97.50
2022-10-15T04:06:29.703Z,97.60
2022-10-15T04:12:04.287Z,97.70
2022-10-15T04:17:32.189Z,97.80
2022-10-15T04:23:00.040Z,97.90
2022-10-15T04:28:29.705Z,98.10
2022-10-15T04:33:57.517Z,98.20
2022-10-15T04:39:25.718Z,98.20
2022-10-15T04:44:53.546Z,98.30
2022-10-15T04:50:21.426Z,98.50
2022-10-15T04:56:20.750Z,98.60
2022-10-15T05:01:48.665Z,98.80
2022-10-15T05:07:16.625Z,98.90
2022-10-15T05:12:45.008Z,99.00
2022-10-15T05:18:13.243Z,99.10
2022-10-15T05:23:52.408Z,99.30
2022-10-15T05:29:35.143Z,99.50
2022-10-15T05:35:02.987Z,99.60
2022-10-15T05:40:50.669Z,99.80
2022-10-15T05:46:22.656Z,99.80
2022-10-15T05:51:50.580Z,99.90
2022-10-15T05:57:33.323Z,99.90
2022-10-15T06:03:04.750Z,99.90
2022-10-15T06:08:32.783Z,99.90
2022-10-15T06:14:00.627Z,99.90
2022-10-15T06:19:28.443Z,99.90
2022-10-15T06:24:56.495Z,99.90
2022-10-15T06:30:26.272Z,99.90
2022-10-15T06:35:54.258Z,99.90
2022-10-15T06:41:22.234Z,99.90
2022-10-15T06:46:50.041Z,99.90
2022-10-15T06:52:17.938Z,99.90
2022-10-15T06:57:45.872Z,99.90
2022-10-15T07:03:17.758Z,99.90
2022-10-15T07:08:45.999Z,99.90
2022-10-15T07:14:13.748Z,99.90
2022-10-15T07:19:41.472Z,99.90
2022-10-15T07:25:12.757Z,99.90
2022-10-15T07:30:40.898Z,99.90
2022-10-15T07:36:12.845Z,99.90
2022-10-15T07:41:42.174Z,99.90
2022-10-15T07:47:09.982Z,99.90
2022-10-15T07:52:37.926Z,99.90
2022-10-15T07:58:08.253Z,99.90
2022-10-15T08:03:37.286Z,99.90
2022-10-15T08:09:06.053Z,99.90
2022-10-15T08:14:37.507Z,99.90
2022-10-15T08:20:06.699Z,99.90
2022-10-15T08:25:34.472Z,99.90
2022-10-15T08:31:05.629Z,99.90
2022-10-15T08:36:36.320Z,99.90
2022-10-15T08:42:12.392Z,99.90
2022-10-15T08:47:50.314Z,99.90
2022-10-15T08:53:23.024Z,99.90
2022-10-15T08:59:02.801Z,99.90
2022-10-15T09:04:47.452Z,99.90
2022-10-15T09:10:47.644Z,99.90
2022-10-15T09:16:28.922Z,99.90
2022-10-15T09:21:57.650Z,99.90
2022-10-15T09:27:37.014Z,99.90
2022-10-15T09:33:16.283Z,99.80
2022-10-15T09:39:06.114Z,99.70
2022-10-15T09:44:41.380Z,99.50
2022-10-15T09:50:13.501Z,99.40
2022-10-15T09:56:06.019Z,99.30
2022-10-15T10:01:34.892Z,99.40
2022-10-15T10:07:09.894Z,99.20
2022-10-15T10:12:38.052Z,99.10
2022-10-15T10:18:06.794Z,98.70
2022-10-15T10:23:36.882Z,98.50
2022-10-15T10:29:15.755Z,98.40
2022-10-15T10:34:55.115Z,97.90
2022-10-15T10:40:30.060Z,97.50
2022-10-15T10:46:05.520Z,97.20
2022-10-15T10:51:49.931Z,96.70
2022-10-15T10:57:23.728Z,96.00
2022-10-15T11:02:52.989Z,95.40
2022-10-15T11:08:56.240Z,94.80
2022-10-15T11:14:57.937Z,94.40
2022-10-15T11:21:13.934Z,92.90
2022-10-15T11:27:21.659Z,92.20
2022-10-15T11:33:30.858Z,91.90
2022-10-15T11:39:21.683Z,91.10
2022-10-15T11:45:04.383Z,90.80
2022-10-15T11:50:45.726Z,90.60
2022-10-15T11:56:36.492Z,90.30
2022-10-15T12:02:22.980Z,90.20
2022-10-15T12:07:50.962Z,88.50
2022-10-15T12:13:48.420Z,87.80
2022-10-15T12:19:23.900Z,86.20
2022-10-15T12:24:56.339Z,85.70
2022-10-15T12:30:29.855Z,85.00
2022-10-15T12:36:21.471Z,84.90
2022-10-15T12:41:50.522Z,84.10
2022-10-15T12:47:50.333Z,83.00
2022-10-15T12:53:29.920Z,83.70
2022-10-15T12:58:57.801Z,83.80
2022-10-15T13:04:38.358Z,82.40
2022-10-15T13:11:02.868Z,81.40
2022-10-15T13:16:31.449Z,81.50
2022-10-15T13:22:03.406Z,82.50
2022-10-15T13:27:40.041Z,81.70
2022-10-15T13:33:10.653Z,80.30
2022-10-15T13:38:41.914Z,78.80
2022-10-15T13:44:25.393Z,77.80
2022-10-15T13:50:24.088Z,76.60
2022-10-15T13:55:55.594Z,78.40
2022-10-15T14:01:25.534Z,75.20
2022-10-15T14:07:03.747Z,71.50
2022-10-15T14:12:31.686Z,68.70
2022-10-15T14:18:00.362Z,66.50
2022-10-15T14:23:28.774Z,64.50
2022-10-15T14:28:57.461Z,69.60
2022-10-15T14:34:45.565Z,71.80
2022-10-15T14:40:18.804Z,72.50
2022-10-15T14:46:00.324Z,72.40
2022-10-15T14:51:33.386Z,72.30
2022-10-15T14:57:01.828Z,72.80
2022-10-15T15:02:30.200Z,73.10
2022-10-15T15:07:59.428Z,73.60
2022-10-15T15:13:32.745Z,73.70
2022-10-15T15:19:00.606Z,73.50
2022-10-15T15:24:28.409Z,74.00
2022-10-15T15:29:58.570Z,74.40
2022-10-15T15:35:50.786Z,74.60
2022-10-15T15:41:21.520Z,75.00
2022-10-15T15:46:51.502Z,75.40
2022-10-15T15:52:19.250Z,75.80
2022-10-15T15:57:47.363Z,76.20
2022-10-15T16:03:15.486Z,76.60
2022-10-15T16:08:43.262Z,77.00
2022-10-15T16:14:12.071Z,77.40
2022-10-15T16:19:39.940Z,77.80
2022-10-15T16:25:09.338Z,78.20
2022-10-15T16:30:37.718Z,78.40
2022-10-15T16:36:06.196Z,78.60
2022-10-15T16:41:33.963Z,78.80
2022-10-15T16:47:02.095Z,79.00
2022-10-15T16:52:29.984Z,79.20
2022-10-15T16:57:57.819Z,79.40
2022-10-15T17:03:25.775Z,79.60
2022-10-15T17:08:58.664Z,79.70
2022-10-15T17:14:26.623Z,80.00
2022-10-15T17:19:54.468Z,80.10
2022-10-15T17:25:22.259Z,80.20
2022-10-15T17:30:50.124Z,80.50
2022-10-15T17:36:22.293Z,80.60
2022-10-15T17:41:51.998Z,80.80
2022-10-15T17:47:19.959Z,81.00
2022-10-15T17:52:47.795Z,81.20
2022-10-15T17:58:16.842Z,81.40
2022-10-15T18:03:44.824Z,81.50
2022-10-15T18:09:12.808Z,81.60
2022-10-15T18:14:40.795Z,81.90
2022-10-15T18:20:09.133Z,82.00
2022-10-15T18:25:37.721Z,82.20
2022-10-15T18:31:07.948Z,82.40
2022-10-15T18:36:35.933Z,82.60
2022-10-15T18:42:04.030Z,82.70
2022-10-15T18:47:32.206Z,82.80
2022-10-15T18:53:03.166Z,83.10
2022-10-15T18:58:31.267Z,83.20
2022-10-15T19:04:06.323Z,83.20
2022-10-15T19:09:34.708Z,84.10
2022-10-15T19:15:02.511Z,83.60
2022-10-15T19:20:30.490Z,83.70
2022-10-15T19:26:00.614Z,84.00
2022-10-15T19:31:34.715Z,84.20
2022-10-15T19:37:03.157Z,84.40
2022-10-15T19:42:31.652Z,84.70
2022-10-15T19:48:02.322Z,84.70
2022-10-15T19:53:31.825Z,84.90
2022-10-15T19:59:02.753Z,85.10
2022-10-15T20:04:30.579Z,85.20
2022-10-15T20:09:58.467Z,85.30
2022-10-15T20:15:26.423Z,85.40
2022-10-15T20:20:55.339Z,85.40
2022-10-15T20:26:23.974Z,85.60
2022-10-15T20:31:54.155Z,85.70
2022-10-15T20:37:23.980Z,85.80
2022-10-15T20:42:51.713Z,85.90
2022-10-15T20:48:23.221Z,86.10
2022-10-15T20:53:52.829Z,86.20
2022-10-15T20:59:20.617Z,86.30
2022-10-15T21:04:50.725Z,86.40
2022-10-15T21:10:18.541Z,86.50
2022-10-15T21:15:49.151Z,86.50
2022-10-15T21:21:17.858Z,86.50
2022-10-15T21:26:45.728Z,86.70
2022-10-15T21:32:13.582Z,86.80
2022-10-15T21:37:41.633Z,86.90
2022-10-15T21:43:09.408Z,87.00
2022-10-15T21:48:38.520Z,87.10
2022-10-15T21:54:08.174Z,87.30
2022-10-15T21:59:36.157Z,87.30
2022-10-15T22:05:07.347Z,87.50
2022-10-15T22:10:36.752Z,87.60
2022-10-15T22:16:05.433Z,87.80
2022-10-15T22:21:36.511Z,87.90
2022-10-15T22:27:04.389Z,87.90
2022-10-15T22:32:32.163Z,88.10
2022-10-15T22:38:00.077Z,88.10
2022-10-15T22:43:27.976Z,88.30
2022-10-15T22:48:55.783Z,88.50
2022-10-15T22:54:23.786Z,88.50
2022-10-15T22:59:55.864Z,88.70
2022-10-15T23:05:26.464Z,88.90
2022-10-15T23:10:54.200Z,89.00
2022-10-15T23:16:28.044Z,89.20
2022-10-15T23:21:56.802Z,89.30
2022-10-15T23:27:24.870Z,89.40
2022-10-15T23:32:52.836Z,89.50
2022-10-15T23:38:20.726Z,89.70
2022-10-15T23:43:48.575Z,89.80
2022-10-15T23:49:17.417Z,89.80
2022-10-15T23:54:45.172Z,90.00
